Mc Connell A F B, Kansas
Current Conditions -  °F | °C
As of 6:33 AM on Thursday 18 Dec 2014 (Local Time) from KIAB Reporting Station
Haze Haze  
Wind Chill: 25°   Ceiling: 200
Heat Index: 30°   Visibility: 2mi
Dew Point: 30°   Wind: 5mph
Humidity: 100%   Direction: 50°NE
Pressure: 30.15"   Gusts: NA
Location:  37.6282°N, 97.2663°W
Report Text: KIAB 181233Z AUTO 05004KT 2SM R19/3500FT BR OVC002 M01/M01 A3015 RMK AO2 VIS 2V2 1/2 $
Loading
Personal Weather Stations






























Interactive Weather Map New forecast layout! Learn more

10-Day Weather Forecast

Advertisements
Track Severe Weather on mobile